createdAt,value
2022-11-23T00:01:34.643Z,7.40
2022-11-23T00:04:36.265Z,7.34
2022-11-23T00:07:37.936Z,7.36
2022-11-23T00:10:39.691Z,7.37
2022-11-23T00:13:42.071Z,7.36
2022-11-23T00:16:45.106Z,7.31
2022-11-23T00:19:46.773Z,7.10
2022-11-23T00:22:48.486Z,7.03
2022-11-23T00:25:50.251Z,6.99
2022-11-23T00:28:51.958Z,7.02
2022-11-23T00:31:54.948Z,7.00
2022-11-23T00:34:56.541Z,7.03
2022-11-23T00:37:58.207Z,7.02
2022-11-23T00:41:01.830Z,7.03
2022-11-23T00:44:03.816Z,7.05
2022-11-23T00:47:06.857Z,7.01
2022-11-23T00:50:09.958Z,7.02
2022-11-23T00:53:11.642Z,7.06
2022-11-23T00:56:13.841Z,7.05
2022-11-23T00:59:15.932Z,7.10
2022-11-23T01:02:18.910Z,7.15
2022-11-23T01:05:20.620Z,7.18
2022-11-23T01:08:22.256Z,7.17
2022-11-23T01:11:26.051Z,7.15
2022-11-23T01:14:28.464Z,7.17
2022-11-23T01:17:31.910Z,7.14
2022-11-23T01:20:34.956Z,7.06
2022-11-23T01:23:36.608Z,7.12
2022-11-23T01:26:38.761Z,7.12
2022-11-23T01:29:40.397Z,7.10
2022-11-23T01:32:43.366Z,7.14
2022-11-23T01:35:46.139Z,7.17
2022-11-23T01:38:48.504Z,7.16
2022-11-23T01:41:50.168Z,7.14
2022-11-23T01:44:52.849Z,7.17
2022-11-23T01:47:55.824Z,7.20
2022-11-23T01:51:00.455Z,7.21
2022-11-23T01:54:05.527Z,7.20
2022-11-23T01:57:09.421Z,7.16
2022-11-23T02:00:13.464Z,7.20
2022-11-23T02:03:17.876Z,7.21
2022-11-23T02:06:21.334Z,7.22
2022-11-23T02:09:23.280Z,7.17
2022-11-23T02:12:25.660Z,7.21
2022-11-23T02:15:27.323Z,7.23
2022-11-23T02:18:32.879Z,7.26
2022-11-23T02:21:34.655Z,7.30
2022-11-23T02:24:42.108Z,7.29
2022-11-23T02:27:47.600Z,7.30
2022-11-23T02:30:51.701Z,7.32
2022-11-23T02:33:55.557Z,7.34
2022-11-23T02:36:57.789Z,7.27
2022-11-23T02:40:03.003Z,7.30
2022-11-23T02:43:10.331Z,7.30
2022-11-23T02:46:13.236Z,7.26
2022-11-23T02:49:14.962Z,7.30
2022-11-23T02:52:17.975Z,7.32
2022-11-23T02:55:20.273Z,7.36
2022-11-23T02:58:23.338Z,7.28
2022-11-23T03:01:25.626Z,7.30
2022-11-23T03:04:28.128Z,7.31
2022-11-23T03:07:30.114Z,7.29
2022-11-23T03:10:34.026Z,7.28
2022-11-23T03:13:37.533Z,7.24
2022-11-23T03:16:39.356Z,7.32
2022-11-23T03:19:41.696Z,7.35
2022-11-23T03:22:45.727Z,7.36
2022-11-23T03:25:55.829Z,7.33
2022-11-23T03:29:00.137Z,7.34
2022-11-23T03:32:05.178Z,7.39
2022-11-23T03:35:08.265Z,7.34
2022-11-23T03:38:18.258Z,7.37
2022-11-23T03:41:19.927Z,7.39
2022-11-23T03:44:28.702Z,7.40
2022-11-23T03:47:30.624Z,7.37
2022-11-23T03:50:32.499Z,7.36
2022-11-23T03:53:34.176Z,7.36
2022-11-23T03:56:35.964Z,7.37
2022-11-23T03:59:39.257Z,7.33
2022-11-23T04:02:42.440Z,7.33
2022-11-23T04:06:04.212Z,7.40
2022-11-23T04:09:17.831Z,7.37
2022-11-23T04:13:27.997Z,7.37
2022-11-23T04:16:31.358Z,7.35
2022-11-23T04:19:33.403Z,7.34
2022-11-23T04:22:35.291Z,7.47
2022-11-23T04:25:36.981Z,7.47
2022-11-23T04:28:38.841Z,7.47
2022-11-23T04:31:41.954Z,7.43
2022-11-23T04:34:47.571Z,7.41
2022-11-23T04:37:49.527Z,7.46
2022-11-23T04:40:52.374Z,7.44
2022-11-23T04:43:55.158Z,7.48
2022-11-23T04:46:59.725Z,7.51
2022-11-23T04:50:01.567Z,7.43
2022-11-23T04:53:04.580Z,7.45
2022-11-23T04:56:13.862Z,7.47
2022-11-23T04:59:16.810Z,7.43
2022-11-23T05:02:20.082Z,7.45
2022-11-23T05:05:24.361Z,7.42
2022-11-23T05:08:26.337Z,7.40
2022-11-23T05:11:48.859Z,7.41
2022-11-23T05:14:50.630Z,7.40
2022-11-23T05:18:06.746Z,7.39
2022-11-23T05:21:09.318Z,7.44
2022-11-23T05:24:11.208Z,7.38
2022-11-23T05:27:17.932Z,7.41
2022-11-23T05:30:20.536Z,7.40
2022-11-23T05:33:23.616Z,7.40
2022-11-23T05:36:25.348Z,7.35
2022-11-23T05:39:27.171Z,7.39
2022-11-23T05:42:29.151Z,7.41
2022-11-23T05:45:35.472Z,7.42
2022-11-23T05:48:39.254Z,7.37
2022-11-23T05:51:45.630Z,7.39
2022-11-23T05:54:47.391Z,7.35
2022-11-23T05:57:49.950Z,7.38
2022-11-23T06:00:51.691Z,7.36
2022-11-23T06:03:55.155Z,7.36
2022-11-23T06:07:00.879Z,7.37
2022-11-23T06:10:08.843Z,7.33
2022-11-23T06:13:14.374Z,7.33
2022-11-23T06:16:16.488Z,7.38
2022-11-23T06:19:32.435Z,7.44
2022-11-23T06:22:34.424Z,7.44
2022-11-23T06:25:40.557Z,7.42
2022-11-23T06:28:50.528Z,7.47
2022-11-23T06:31:54.429Z,7.44
2022-11-23T06:35:00.763Z,7.47
2022-11-23T06:38:05.557Z,7.44
2022-11-23T06:41:07.915Z,7.47
2022-11-23T06:44:09.930Z,7.40
2022-11-23T06:47:20.764Z,7.40
2022-11-23T06:50:27.551Z,7.42
2022-11-23T06:53:30.115Z,7.35
2022-11-23T06:56:36.687Z,7.42
2022-11-23T06:59:43.170Z,7.40
2022-11-23T07:02:52.168Z,7.49
2022-11-23T07:05:57.025Z,7.50
2022-11-23T07:09:02.881Z,7.44
2022-11-23T07:12:19.550Z,7.45
2022-11-23T07:15:21.271Z,7.48
2022-11-23T07:18:25.527Z,7.48
2022-11-23T07:21:33.798Z,7.47
2022-11-23T07:24:39.670Z,7.51
2022-11-23T07:27:43.613Z,7.50
2022-11-23T07:30:45.373Z,7.40
2022-11-23T07:33:48.377Z,7.34
2022-11-23T07:36:52.753Z,7.32
2022-11-23T07:39:58.499Z,7.29
2022-11-23T07:43:05.786Z,7.38
2022-11-23T07:46:07.394Z,7.49
2022-11-23T07:49:09.051Z,7.51
2022-11-23T07:52:12.174Z,7.52
2022-11-23T07:55:13.874Z,7.52
2022-11-23T07:58:15.556Z,7.59
2022-11-23T08:01:18.473Z,7.55
2022-11-23T08:04:20.258Z,7.51
2022-11-23T08:07:23.320Z,7.58
2022-11-23T08:10:25.264Z,7.63
2022-11-23T08:13:27.022Z,7.65
2022-11-23T08:16:28.755Z,7.75
2022-11-23T08:19:30.397Z,7.74
2022-11-23T08:22:33.412Z,7.76
2022-11-23T08:25:35.026Z,7.72
2022-11-23T08:28:38.633Z,7.70
2022-11-23T08:31:40.294Z,7.70
2022-11-23T08:34:42.893Z,7.68
2022-11-23T08:37:45.837Z,7.71
2022-11-23T08:40:47.477Z,7.74
2022-11-23T08:43:49.409Z,7.80
2022-11-23T08:46:51.143Z,7.81
2022-11-23T08:49:52.819Z,7.86
2022-11-23T08:52:56.875Z,7.88
2022-11-23T08:56:00.569Z,7.89
2022-11-23T08:59:02.198Z,7.88
2022-11-23T09:02:03.823Z,8.00
2022-11-23T09:05:07.476Z,8.05
2022-11-23T09:08:10.561Z,8.03
2022-11-23T09:11:14.003Z,8.06
2022-11-23T09:14:15.851Z,8.10
2022-11-23T09:17:17.486Z,8.19
2022-11-23T09:20:19.357Z,8.29
2022-11-23T09:23:22.652Z,8.31
2022-11-23T09:26:24.438Z,8.27
2022-11-23T09:29:26.618Z,8.29
2022-11-23T09:32:28.341Z,8.37
2022-11-23T09:35:29.956Z,8.50
2022-11-23T09:38:55.136Z,8.69
2022-11-23T09:42:13.325Z,8.67
2022-11-23T09:45:22.637Z,8.77
2022-11-23T09:48:41.295Z,8.77
2022-11-23T09:51:44.558Z,9.00
2022-11-23T09:54:49.965Z,8.88
2022-11-23T09:58:00.578Z,9.07
2022-11-23T10:01:05.244Z,9.34
2022-11-23T10:04:11.007Z,9.26
2022-11-23T10:07:29.264Z,9.44
2022-11-23T10:10:45.019Z,9.54
2022-11-23T10:14:02.665Z,9.61
2022-11-23T10:17:12.962Z,9.68
2022-11-23T10:20:29.152Z,9.72
2022-11-23T10:23:43.566Z,9.84
2022-11-23T10:26:48.754Z,9.85
2022-11-23T10:29:52.524Z,9.76
2022-11-23T10:33:00.574Z,9.96
2022-11-23T10:36:02.385Z,10.06
2022-11-23T10:39:16.405Z,10.23
2022-11-23T10:42:24.471Z,10.24
2022-11-23T10:45:27.919Z,10.37
2022-11-23T10:48:35.089Z,10.24
2022-11-23T10:51:37.870Z,10.53
2022-11-23T10:54:52.923Z,10.67
2022-11-23T10:57:56.733Z,10.78
2022-11-23T11:01:03.932Z,10.81
2022-11-23T11:04:22.823Z,11.06
2022-11-23T11:07:28.469Z,10.74
2022-11-23T11:10:39.421Z,10.85
2022-11-23T11:13:44.398Z,11.00
2022-11-23T11:16:49.564Z,11.05
2022-11-23T11:19:51.242Z,11.11
2022-11-23T11:22:54.050Z,11.12
2022-11-23T11:26:09.032Z,11.24
2022-11-23T11:29:33.965Z,10.76
2022-11-23T11:32:49.134Z,10.97
2022-11-23T11:35:53.768Z,11.02
2022-11-23T11:39:15.387Z,10.97
2022-11-23T11:42:22.483Z,10.96
2022-11-23T11:45:29.146Z,11.17
2022-11-23T11:48:36.145Z,11.28
2022-11-23T11:51:41.613Z,11.55
2022-11-23T11:54:49.931Z,11.69
2022-11-23T11:57:55.977Z,11.73
2022-11-23T12:01:08.956Z,12.12
2022-11-23T12:04:17.107Z,12.44
2022-11-23T12:07:26.332Z,12.50
2022-11-23T12:10:33.986Z,11.72
2022-11-23T12:13:38.843Z,12.16
2022-11-23T12:16:59.285Z,11.84
2022-11-23T12:20:20.104Z,12.24
2022-11-23T12:23:34.607Z,12.40
2022-11-23T12:26:46.895Z,12.49
2022-11-23T12:30:03.370Z,12.62
2022-11-23T12:33:27.553Z,12.28
2022-11-23T12:36:51.660Z,12.89
2022-11-23T12:40:08.331Z,13.07
2022-11-23T12:43:14.500Z,12.86
2022-11-23T12:46:21.988Z,13.00
2022-11-23T12:49:39.163Z,12.76
2022-11-23T12:52:56.715Z,12.89
2022-11-23T12:56:09.397Z,12.70
2022-11-23T12:59:13.342Z,13.17
2022-11-23T13:02:44.646Z,12.86
2022-11-23T13:06:36.820Z,13.21
2022-11-23T13:10:01.341Z,13.31
2022-11-23T13:13:20.673Z,13.28
2022-11-23T13:16:33.651Z,12.84
2022-11-23T13:19:50.944Z,13.34
2022-11-23T13:22:53.140Z,13.46
2022-11-23T13:26:15.297Z,13.08
2022-11-23T13:30:00.981Z,13.23
2022-11-23T13:33:23.625Z,12.92
2022-11-23T13:37:11.612Z,12.60
2022-11-23T13:40:06.002Z,12.57
2022-11-23T13:43:16.044Z,12.62
2022-11-23T13:46:28.749Z,12.58
2022-11-23T13:49:42.483Z,12.45
2022-11-23T13:52:49.123Z,12.04
2022-11-23T13:55:53.291Z,11.89
2022-11-23T13:58:58.872Z,11.79
2022-11-23T14:02:27.187Z,11.61
2022-11-23T14:05:55.920Z,11.47
2022-11-23T14:09:03.386Z,11.30
2022-11-23T14:12:14.146Z,11.41
2022-11-23T14:15:20.117Z,11.23
2022-11-23T14:18:45.822Z,11.09
2022-11-23T14:22:01.323Z,11.11
2022-11-23T14:25:23.752Z,10.91
2022-11-23T14:28:42.024Z,10.86
2022-11-23T14:31:56.217Z,10.61
2022-11-23T14:35:28.259Z,10.46
2022-11-23T14:38:49.993Z,10.37
2022-11-23T14:41:56.300Z,10.38
2022-11-23T14:45:03.303Z,10.23
2022-11-23T14:48:22.828Z,9.91
2022-11-23T14:51:28.617Z,9.96
2022-11-23T14:54:31.291Z,9.84
2022-11-23T14:57:40.671Z,9.93
2022-11-23T15:00:43.801Z,9.68
2022-11-23T15:03:56.322Z,9.43
2022-11-23T15:07:02.759Z,9.57
2022-11-23T15:10:12.298Z,9.26
2022-11-23T15:13:42.836Z,9.15
2022-11-23T15:16:44.681Z,9.10
2022-11-23T15:19:55.596Z,9.18
2022-11-23T15:22:57.329Z,8.99
2022-11-23T15:26:02.462Z,8.73
2022-11-23T15:29:04.370Z,8.68
2022-11-23T15:32:30.491Z,8.54
2022-11-23T15:35:36.503Z,8.34
2022-11-23T15:38:38.485Z,8.16
2022-11-23T15:41:40.294Z,7.98
2022-11-23T15:44:44.947Z,7.83
2022-11-23T15:47:49.218Z,8.27
2022-11-23T15:50:54.347Z,7.99
2022-11-23T15:53:59.154Z,7.88
2022-11-23T15:57:02.234Z,7.81
2022-11-23T16:00:06.093Z,7.52
2022-11-23T16:03:33.444Z,8.19
2022-11-23T16:06:38.229Z,8.50
2022-11-23T16:09:51.110Z,8.47
2022-11-23T16:12:55.448Z,8.46
2022-11-23T16:15:59.967Z,8.67
2022-11-23T16:19:02.235Z,8.88
2022-11-23T16:22:07.829Z,9.03
2022-11-23T16:25:28.230Z,9.11
2022-11-23T16:28:31.929Z,9.20
2022-11-23T16:31:38.052Z,9.28
2022-11-23T16:34:41.654Z,9.39
2022-11-23T16:37:44.714Z,9.23
2022-11-23T16:40:49.818Z,9.09
2022-11-23T16:43:53.969Z,9.25
2022-11-23T16:46:55.617Z,9.42
2022-11-23T16:53:19.627Z,9.26
2022-11-23T16:56:24.072Z,9.19
2022-11-23T16:59:25.858Z,9.09
2022-11-23T17:02:27.694Z,9.28
2022-11-23T17:05:29.406Z,9.32
2022-11-23T17:08:32.410Z,9.33
2022-11-23T17:11:37.474Z,9.19
2022-11-23T17:14:39.742Z,9.00
2022-11-23T17:17:41.361Z,8.89
2022-11-23T17:20:43.310Z,8.85
2022-11-23T17:23:46.860Z,8.79
2022-11-23T17:26:53.042Z,8.62
2022-11-23T17:29:58.906Z,8.55
2022-11-23T17:33:00.642Z,8.40
2022-11-23T17:36:02.318Z,8.26
2022-11-23T17:39:05.496Z,8.10
2022-11-23T17:42:09.347Z,7.97
2022-11-23T17:45:12.168Z,8.04
2022-11-23T17:48:16.094Z,8.00
2022-11-23T17:51:17.837Z,7.89
2022-11-23T17:54:20.957Z,7.81
2022-11-23T17:57:24.296Z,7.70
2022-11-23T18:00:27.952Z,7.61
2022-11-23T18:03:29.633Z,7.47
2022-11-23T18:06:31.487Z,7.41
2022-11-23T18:09:35.004Z,7.46
2022-11-23T18:12:37.124Z,7.35
2022-11-23T18:15:38.821Z,7.29
2022-11-23T18:18:40.571Z,7.26
2022-11-23T18:21:42.451Z,7.35
2022-11-23T18:24:45.436Z,7.35
2022-11-23T18:27:47.309Z,7.33
2022-11-23T18:30:48.979Z,7.37
2022-11-23T18:33:51.270Z,7.34
2022-11-23T18:36:54.295Z,7.30
2022-11-23T18:39:57.385Z,7.35
2022-11-23T18:42:59.017Z,7.40
2022-11-23T18:46:04.013Z,7.41
2022-11-23T18:49:05.486Z,7.34
2022-11-23T18:52:09.076Z,7.37
2022-11-23T18:55:12.315Z,7.43
2022-11-23T18:58:14.056Z,7.42
2022-11-23T19:01:19.470Z,7.47
2022-11-23T19:04:21.278Z,7.43
2022-11-23T19:07:27.154Z,7.47
2022-11-23T19:10:31.004Z,7.40
2022-11-23T19:13:34.727Z,7.41
2022-11-23T19:16:36.485Z,7.47
2022-11-23T19:19:38.411Z,7.40
2022-11-23T19:22:40.097Z,7.48
2022-11-23T19:25:43.144Z,7.48
2022-11-23T19:28:45.529Z,7.44
2022-11-23T19:31:48.600Z,7.47
2022-11-23T19:34:50.343Z,7.50
2022-11-23T19:37:52.527Z,7.44
2022-11-23T19:40:55.632Z,7.46
2022-11-23T19:43:59.098Z,7.49
2022-11-23T19:47:02.043Z,7.46
2022-11-23T19:50:06.054Z,7.48
2022-11-23T19:53:12.782Z,7.54
2022-11-23T19:56:17.882Z,7.45
2022-11-23T19:59:19.605Z,7.44
2022-11-23T20:02:24.487Z,7.48
2022-11-23T20:05:27.292Z,7.49
2022-11-23T20:08:29.413Z,7.49
2022-11-23T20:11:33.537Z,7.51
2022-11-23T20:14:35.236Z,7.55
2022-11-23T20:17:36.967Z,7.50
2022-11-23T20:20:41.667Z,7.51
2022-11-23T20:23:44.826Z,7.52
2022-11-23T20:26:47.849Z,7.60
2022-11-23T20:29:49.770Z,7.56
2022-11-23T20:32:52.050Z,7.53
2022-11-23T20:35:53.976Z,7.47
2022-11-23T20:38:56.037Z,7.57
2022-11-23T20:41:59.081Z,7.56
2022-11-23T20:45:01.264Z,7.59
2022-11-23T20:48:03.000Z,7.57
2022-11-23T20:51:10.240Z,7.49
2022-11-23T20:54:12.621Z,7.31
2022-11-23T20:57:15.673Z,7.28
2022-11-23T21:00:18.597Z,7.26
2022-11-23T21:03:20.287Z,7.24
2022-11-23T21:06:22.940Z,7.20
2022-11-23T21:09:24.758Z,7.20
2022-11-23T21:12:50.465Z,7.26
2022-11-23T21:15:52.401Z,7.25
2022-11-23T21:18:54.083Z,7.36
2022-11-23T21:21:57.084Z,7.47
2022-11-23T21:24:58.754Z,7.57
2022-11-23T21:28:03.230Z,7.55
2022-11-23T21:31:08.205Z,7.57
2022-11-23T21:34:17.573Z,7.62
2022-11-23T21:37:19.304Z,7.50
2022-11-23T21:40:21.116Z,7.50
2022-11-23T21:43:24.844Z,7.38
2022-11-23T21:46:26.806Z,7.30
2022-11-23T21:49:28.693Z,7.23
2022-11-23T21:52:30.482Z,7.17
2022-11-23T21:55:32.794Z,7.22
2022-11-23T21:58:35.944Z,7.19
2022-11-23T22:01:38.300Z,7.17
2022-11-23T22:04:40.000Z,7.23
2022-11-23T22:07:47.390Z,7.35
2022-11-23T22:10:56.804Z,7.46
2022-11-23T22:14:02.036Z,7.44
2022-11-23T22:17:04.145Z,7.43
2022-11-23T22:20:06.901Z,7.52
2022-11-23T22:23:09.558Z,7.48
2022-11-23T22:26:13.118Z,7.46
2022-11-23T22:29:16.223Z,7.49
2022-11-23T22:32:17.916Z,7.47
2022-11-23T22:35:19.517Z,7.42
2022-11-23T22:38:21.152Z,7.33
2022-11-23T22:41:23.246Z,7.26
2022-11-23T22:44:26.206Z,7.38
2022-11-23T22:47:27.840Z,7.35
2022-11-23T22:50:29.555Z,7.41
2022-11-23T22:53:31.741Z,7.56
2022-11-23T22:56:33.491Z,7.55
2022-11-23T22:59:36.589Z,7.52
2022-11-23T23:02:38.393Z,7.62
2022-11-23T23:05:40.147Z,7.60
2022-11-23T23:08:41.870Z,7.57
2022-11-23T23:11:43.834Z,7.59
2022-11-23T23:14:46.802Z,7.50
2022-11-23T23:17:48.522Z,7.54
2022-11-23T23:20:50.138Z,7.74
2022-11-23T23:23:54.075Z,7.61
2022-11-23T23:26:55.707Z,7.68
2022-11-23T23:29:59.718Z,7.64
2022-11-23T23:33:01.355Z,7.62
2022-11-23T23:36:04.608Z,7.63
2022-11-23T23:39:06.290Z,7.63
2022-11-23T23:42:07.891Z,7.67
2022-11-23T23:45:11.117Z,7.56
2022-11-23T23:48:13.109Z,7.46
2022-11-23T23:51:16.487Z,7.59
2022-11-23T23:54:18.153Z,7.51
2022-11-23T23:57:19.763Z,7.68
